sensor_id;sensor_type;location;lat;lon;timestamp;P1;durP1;ratioP1;P2;durP2;ratioP2
60344;SDS011;46188;52.324;8.032;2022-07-23T00:00:49;3.03;;;2.10;;
60344;SDS011;46188;52.324;8.032;2022-07-23T00:03:15;3.90;;;2.70;;
60344;SDS011;46188;52.324;8.032;2022-07-23T00:05:40;5.57;;;2.55;;
60344;SDS011;46188;52.324;8.032;2022-07-23T00:08:06;4.82;;;2.90;;
60344;SDS011;46188;52.324;8.032;2022-07-23T00:10:32;5.03;;;2.67;;
60344;SDS011;46188;52.324;8.032;2022-07-23T00:12:58;2.90;;;2.38;;
60344;SDS011;46188;52.324;8.032;2022-07-23T00:15:24;2.70;;;2.47;;
60344;SDS011;46188;52.324;8.032;2022-07-23T00:17:49;3.15;;;2.40;;
60344;SDS011;46188;52.324;8.032;2022-07-23T00:20:15;3.10;;;2.60;;
60344;SDS011;46188;52.324;8.032;2022-07-23T00:22:51;3.95;;;2.30;;
60344;SDS011;46188;52.324;8.032;2022-07-23T00:25:18;3.75;;;2.30;;
60344;SDS011;46188;52.324;8.032;2022-07-23T00:27:44;5.22;;;2.83;;
60344;SDS011;46188;52.324;8.032;2022-07-23T00:30:10;3.10;;;2.58;;
60344;SDS011;46188;52.324;8.032;2022-07-23T00:32:49;3.03;;;2.40;;
60344;SDS011;46188;52.324;8.032;2022-07-23T00:35:21;3.70;;;2.35;;
60344;SDS011;46188;52.324;8.032;2022-07-23T00:37:48;3.03;;;2.40;;
60344;SDS011;46188;52.324;8.032;2022-07-23T00:40:13;4.82;;;2.80;;
60344;SDS011;46188;52.324;8.032;2022-07-23T00:42:39;3.13;;;2.55;;
60344;SDS011;46188;52.324;8.032;2022-07-23T00:45:05;3.72;;;3.20;;
60344;SDS011;46188;52.324;8.032;2022-07-23T00:47:31;3.25;;;2.72;;
60344;SDS011;46188;52.324;8.032;2022-07-23T00:49:57;3.40;;;2.90;;
60344;SDS011;46188;52.324;8.032;2022-07-23T00:52:23;3.50;;;2.55;;
60344;SDS011;46188;52.324;8.032;2022-07-23T00:54:49;4.07;;;2.40;;
60344;SDS011;46188;52.324;8.032;2022-07-23T00:57:15;4.63;;;2.80;;
60344;SDS011;46188;52.324;8.032;2022-07-23T00:59:41;3.65;;;2.75;;
60344;SDS011;46188;52.324;8.032;2022-07-23T01:02:07;3.72;;;3.33;;
60344;SDS011;46188;52.324;8.032;2022-07-23T01:04:32;5.00;;;2.53;;
60344;SDS011;46188;52.324;8.032;2022-07-23T01:06:58;3.80;;;3.22;;
60344;SDS011;46188;52.324;8.032;2022-07-23T01:09:24;4.50;;;2.72;;
60344;SDS011;46188;52.324;8.032;2022-07-23T01:11:51;4.28;;;3.13;;
60344;SDS011;46188;52.324;8.032;2022-07-23T01:14:18;6.57;;;3.03;;
60344;SDS011;46188;52.324;8.032;2022-07-23T01:16:46;8.25;;;3.35;;
60344;SDS011;46188;52.324;8.032;2022-07-23T01:19:12;4.20;;;3.05;;
60344;SDS011;46188;52.324;8.032;2022-07-23T01:21:40;5.60;;;3.15;;
60344;SDS011;46188;52.324;8.032;2022-07-23T01:24:07;5.32;;;3.58;;
60344;SDS011;46188;52.324;8.032;2022-07-23T01:26:34;3.83;;;3.33;;
60344;SDS011;46188;52.324;8.032;2022-07-23T01:29:00;4.45;;;3.10;;
60344;SDS011;46188;52.324;8.032;2022-07-23T01:31:26;6.47;;;3.85;;
60344;SDS011;46188;52.324;8.032;2022-07-23T01:33:51;7.45;;;3.80;;
60344;SDS011;46188;52.324;8.032;2022-07-23T01:36:17;6.63;;;4.28;;
60344;SDS011;46188;52.324;8.032;2022-07-23T01:38:43;5.75;;;3.63;;
60344;SDS011;46188;52.324;8.032;2022-07-23T01:41:08;4.57;;;3.20;;
60344;SDS011;46188;52.324;8.032;2022-07-23T01:43:34;3.70;;;3.20;;
60344;SDS011;46188;52.324;8.032;2022-07-23T01:45:59;4.60;;;3.28;;
60344;SDS011;46188;52.324;8.032;2022-07-23T01:48:24;6.05;;;3.30;;
60344;SDS011;46188;52.324;8.032;2022-07-23T01:50:50;4.07;;;3.22;;
60344;SDS011;46188;52.324;8.032;2022-07-23T01:53:16;5.20;;;3.25;;
60344;SDS011;46188;52.324;8.032;2022-07-23T01:55:41;5.20;;;3.70;;
60344;SDS011;46188;52.324;8.032;2022-07-23T01:58:08;6.45;;;4.07;;
60344;SDS011;46188;52.324;8.032;2022-07-23T02:00:33;3.30;;;2.88;;
60344;SDS011;46188;52.324;8.032;2022-07-23T02:02:59;5.85;;;4.35;;
60344;SDS011;46188;52.324;8.032;2022-07-23T02:05:25;4.70;;;3.50;;
60344;SDS011;46188;52.324;8.032;2022-07-23T02:07:51;5.85;;;3.88;;
60344;SDS011;46188;52.324;8.032;2022-07-23T02:10:17;4.43;;;3.28;;
60344;SDS011;46188;52.324;8.032;2022-07-23T02:12:43;4.32;;;3.65;;
60344;SDS011;46188;52.324;8.032;2022-07-23T02:15:08;4.97;;;3.50;;
60344;SDS011;46188;52.324;8.032;2022-07-23T02:17:34;5.38;;;4.40;;
60344;SDS011;46188;52.324;8.032;2022-07-23T02:19:59;6.05;;;3.67;;
60344;SDS011;46188;52.324;8.032;2022-07-23T02:22:24;4.07;;;3.20;;
60344;SDS011;46188;52.324;8.032;2022-07-23T02:24:50;4.15;;;3.50;;
60344;SDS011;46188;52.324;8.032;2022-07-23T02:27:16;4.05;;;3.30;;
60344;SDS011;46188;52.324;8.032;2022-07-23T02:29:41;4.05;;;3.63;;
60344;SDS011;46188;52.324;8.032;2022-07-23T02:32:07;5.22;;;3.35;;
60344;SDS011;46188;52.324;8.032;2022-07-23T02:34:32;3.80;;;3.38;;
60344;SDS011;46188;52.324;8.032;2022-07-23T02:36:58;5.53;;;3.60;;
60344;SDS011;46188;52.324;8.032;2022-07-23T02:39:23;4.25;;;3.50;;
60344;SDS011;46188;52.324;8.032;2022-07-23T02:41:49;3.30;;;2.97;;
60344;SDS011;46188;52.324;8.032;2022-07-23T02:44:14;5.22;;;4.50;;
60344;SDS011;46188;52.324;8.032;2022-07-23T02:46:40;5.20;;;4.70;;
60344;SDS011;46188;52.324;8.032;2022-07-23T02:49:05;4.22;;;3.83;;
60344;SDS011;46188;52.324;8.032;2022-07-23T02:51:31;4.43;;;3.67;;
60344;SDS011;46188;52.324;8.032;2022-07-23T02:53:56;5.25;;;4.10;;
60344;SDS011;46188;52.324;8.032;2022-07-23T02:56:22;5.07;;;3.40;;
60344;SDS011;46188;52.324;8.032;2022-07-23T02:58:47;5.43;;;4.30;;
60344;SDS011;46188;52.324;8.032;2022-07-23T03:01:13;6.32;;;4.60;;
60344;SDS011;46188;52.324;8.032;2022-07-23T03:03:38;6.03;;;4.53;;
60344;SDS011;46188;52.324;8.032;2022-07-23T03:06:04;5.32;;;4.78;;
60344;SDS011;46188;52.324;8.032;2022-07-23T03:08:29;5.72;;;4.13;;
60344;SDS011;46188;52.324;8.032;2022-07-23T03:10:55;5.93;;;3.78;;
60344;SDS011;46188;52.324;8.032;2022-07-23T03:13:20;5.40;;;4.07;;
60344;SDS011;46188;52.324;8.032;2022-07-23T03:15:46;4.47;;;3.67;;
60344;SDS011;46188;52.324;8.032;2022-07-23T03:18:11;5.35;;;4.00;;
60344;SDS011;46188;52.324;8.032;2022-07-23T03:20:37;4.93;;;4.25;;
60344;SDS011;46188;52.324;8.032;2022-07-23T03:23:02;6.80;;;5.47;;
60344;SDS011;46188;52.324;8.032;2022-07-23T03:25:28;6.28;;;4.45;;
60344;SDS011;46188;52.324;8.032;2022-07-23T03:27:53;5.03;;;3.85;;
60344;SDS011;46188;52.324;8.032;2022-07-23T03:30:19;4.57;;;3.50;;
60344;SDS011;46188;52.324;8.032;2022-07-23T03:32:44;8.23;;;5.03;;
60344;SDS011;46188;52.324;8.032;2022-07-23T03:35:10;4.45;;;3.40;;
60344;SDS011;46188;52.324;8.032;2022-07-23T03:37:35;4.22;;;3.70;;
60344;SDS011;46188;52.324;8.032;2022-07-23T03:40:01;5.18;;;3.80;;
60344;SDS011;46188;52.324;8.032;2022-07-23T03:42:27;5.75;;;3.55;;
60344;SDS011;46188;52.324;8.032;2022-07-23T03:44:52;4.57;;;3.67;;
60344;SDS011;46188;52.324;8.032;2022-07-23T03:47:18;5.88;;;4.22;;
60344;SDS011;46188;52.324;8.032;2022-07-23T03:49:46;3.70;;;3.33;;
60344;SDS011;46188;52.324;8.032;2022-07-23T03:52:13;3.90;;;3.40;;
60344;SDS011;46188;52.324;8.032;2022-07-23T03:54:38;4.53;;;3.40;;
60344;SDS011;46188;52.324;8.032;2022-07-23T03:57:04;4.95;;;3.92;;
60344;SDS011;46188;52.324;8.032;2022-07-23T03:59:30;4.78;;;3.38;;
60344;SDS011;46188;52.324;8.032;2022-07-23T04:01:55;4.57;;;3.97;;
60344;SDS011;46188;52.324;8.032;2022-07-23T04:04:21;4.95;;;3.30;;
60344;SDS011;46188;52.324;8.032;2022-07-23T04:06:46;5.90;;;4.10;;
60344;SDS011;46188;52.324;8.032;2022-07-23T04:09:11;3.55;;;3.00;;
60344;SDS011;46188;52.324;8.032;2022-07-23T04:11:37;6.68;;;3.92;;
60344;SDS011;46188;52.324;8.032;2022-07-23T04:14:03;5.53;;;3.72;;
60344;SDS011;46188;52.324;8.032;2022-07-23T04:16:28;3.53;;;3.17;;
60344;SDS011;46188;52.324;8.032;2022-07-23T04:18:56;3.70;;;3.10;;
60344;SDS011;46188;52.324;8.032;2022-07-23T04:21:22;4.20;;;3.53;;
60344;SDS011;46188;52.324;8.032;2022-07-23T04:23:48;5.68;;;3.78;;
60344;SDS011;46188;52.324;8.032;2022-07-23T04:26:14;4.63;;;3.60;;
60344;SDS011;46188;52.324;8.032;2022-07-23T04:28:39;4.07;;;3.40;;
60344;SDS011;46188;52.324;8.032;2022-07-23T04:31:05;4.47;;;3.42;;
60344;SDS011;46188;52.324;8.032;2022-07-23T04:33:30;4.32;;;3.50;;
60344;SDS011;46188;52.324;8.032;2022-07-23T04:35:56;3.70;;;3.22;;
60344;SDS011;46188;52.324;8.032;2022-07-23T04:38:21;4.15;;;3.20;;
60344;SDS011;46188;52.324;8.032;2022-07-23T04:40:47;4.28;;;3.45;;
60344;SDS011;46188;52.324;8.032;2022-07-23T04:43:12;5.13;;;3.60;;
60344;SDS011;46188;52.324;8.032;2022-07-23T04:45:38;4.53;;;3.65;;
60344;SDS011;46188;52.324;8.032;2022-07-23T04:48:03;4.60;;;3.60;;
60344;SDS011;46188;52.324;8.032;2022-07-23T04:50:29;4.47;;;3.90;;
60344;SDS011;46188;52.324;8.032;2022-07-23T04:52:55;4.82;;;4.20;;
60344;SDS011;46188;52.324;8.032;2022-07-23T04:55:20;4.30;;;3.83;;
60344;SDS011;46188;52.324;8.032;2022-07-23T04:57:46;6.25;;;4.75;;
60344;SDS011;46188;52.324;8.032;2022-07-23T05:00:11;4.35;;;3.55;;
60344;SDS011;46188;52.324;8.032;2022-07-23T05:02:37;5.47;;;4.78;;
60344;SDS011;46188;52.324;8.032;2022-07-23T05:05:03;5.75;;;4.68;;
60344;SDS011;46188;52.324;8.032;2022-07-23T05:07:29;4.75;;;3.88;;
60344;SDS011;46188;52.324;8.032;2022-07-23T05:09:54;4.38;;;3.97;;
60344;SDS011;46188;52.324;8.032;2022-07-23T05:12:19;6.40;;;4.95;;
60344;SDS011;46188;52.324;8.032;2022-07-23T05:14:45;4.63;;;4.10;;
60344;SDS011;46188;52.324;8.032;2022-07-23T05:17:10;5.22;;;4.65;;
60344;SDS011;46188;52.324;8.032;2022-07-23T05:19:36;5.47;;;4.25;;
60344;SDS011;46188;52.324;8.032;2022-07-23T05:22:01;5.15;;;4.43;;
60344;SDS011;46188;52.324;8.032;2022-07-23T05:24:27;6.80;;;5.13;;
60344;SDS011;46188;52.324;8.032;2022-07-23T05:26:52;5.63;;;4.90;;
60344;SDS011;46188;52.324;8.032;2022-07-23T05:29:18;5.65;;;4.63;;
60344;SDS011;46188;52.324;8.032;2022-07-23T05:31:43;6.57;;;4.90;;
60344;SDS011;46188;52.324;8.032;2022-07-23T05:34:09;6.07;;;4.80;;
60344;SDS011;46188;52.324;8.032;2022-07-23T05:36:35;8.27;;;5.97;;
60344;SDS011;46188;52.324;8.032;2022-07-23T05:39:00;9.82;;;5.60;;
60344;SDS011;46188;52.324;8.032;2022-07-23T05:41:26;6.45;;;5.75;;
60344;SDS011;46188;52.324;8.032;2022-07-23T05:43:51;7.32;;;5.55;;
60344;SDS011;46188;52.324;8.032;2022-07-23T05:46:17;6.40;;;4.95;;
60344;SDS011;46188;52.324;8.032;2022-07-23T05:48:42;7.75;;;6.18;;
60344;SDS011;46188;52.324;8.032;2022-07-23T05:51:08;8.93;;;5.72;;
60344;SDS011;46188;52.324;8.032;2022-07-23T05:53:34;8.07;;;5.90;;
60344;SDS011;46188;52.324;8.032;2022-07-23T05:56:00;7.72;;;6.45;;
60344;SDS011;46188;52.324;8.032;2022-07-23T05:58:26;7.25;;;5.88;;
60344;SDS011;46188;52.324;8.032;2022-07-23T06:00:52;10.80;;;7.07;;
60344;SDS011;46188;52.324;8.032;2022-07-23T06:03:18;7.72;;;6.40;;
60344;SDS011;46188;52.324;8.032;2022-07-23T06:05:43;8.02;;;6.88;;
60344;SDS011;46188;52.324;8.032;2022-07-23T06:08:09;6.95;;;5.60;;
60344;SDS011;46188;52.324;8.032;2022-07-23T06:10:34;6.80;;;5.82;;
60344;SDS011;46188;52.324;8.032;2022-07-23T06:13:00;7.07;;;5.05;;
60344;SDS011;46188;52.324;8.032;2022-07-23T06:15:25;7.40;;;5.20;;
60344;SDS011;46188;52.324;8.032;2022-07-23T06:17:51;8.30;;;6.20;;
60344;SDS011;46188;52.324;8.032;2022-07-23T06:20:17;7.55;;;6.47;;
60344;SDS011;46188;52.324;8.032;2022-07-23T06:22:42;7.38;;;6.35;;
60344;SDS011;46188;52.324;8.032;2022-07-23T06:25:08;7.97;;;5.60;;
60344;SDS011;46188;52.324;8.032;2022-07-23T06:27:34;7.45;;;6.32;;
60344;SDS011;46188;52.324;8.032;2022-07-23T06:29:59;7.25;;;6.20;;
60344;SDS011;46188;52.324;8.032;2022-07-23T06:32:24;7.47;;;5.70;;
60344;SDS011;46188;52.324;8.032;2022-07-23T06:34:50;8.00;;;6.18;;
60344;SDS011;46188;52.324;8.032;2022-07-23T06:37:15;7.60;;;5.43;;
60344;SDS011;46188;52.324;8.032;2022-07-23T06:39:41;5.50;;;4.70;;
60344;SDS011;46188;52.324;8.032;2022-07-23T06:42:07;5.72;;;5.00;;
60344;SDS011;46188;52.324;8.032;2022-07-23T06:44:32;5.20;;;4.70;;
60344;SDS011;46188;52.324;8.032;2022-07-23T06:46:58;4.88;;;3.92;;
60344;SDS011;46188;52.324;8.032;2022-07-23T06:49:23;4.85;;;4.00;;
60344;SDS011;46188;52.324;8.032;2022-07-23T06:51:49;6.45;;;3.92;;
60344;SDS011;46188;52.324;8.032;2022-07-23T06:54:14;6.88;;;3.92;;
60344;SDS011;46188;52.324;8.032;2022-07-23T06:56:40;5.05;;;3.30;;
60344;SDS011;46188;52.324;8.032;2022-07-23T06:59:05;3.70;;;3.33;;
60344;SDS011;46188;52.324;8.032;2022-07-23T07:01:31;4.55;;;2.72;;
60344;SDS011;46188;52.324;8.032;2022-07-23T07:03:56;7.35;;;3.05;;
60344;SDS011;46188;52.324;8.032;2022-07-23T07:06:22;5.40;;;2.40;;
60344;SDS011;46188;52.324;8.032;2022-07-23T07:08:47;3.78;;;2.67;;
60344;SDS011;46188;52.324;8.032;2022-07-23T07:11:13;3.97;;;2.97;;
60344;SDS011;46188;52.324;8.032;2022-07-23T07:13:38;6.05;;;3.08;;
60344;SDS011;46188;52.324;8.032;2022-07-23T07:16:04;4.85;;;3.65;;
60344;SDS011;46188;52.324;8.032;2022-07-23T07:18:30;4.57;;;3.13;;
60344;SDS011;46188;52.324;8.032;2022-07-23T07:20:56;4.22;;;3.10;;
60344;SDS011;46188;52.324;8.032;2022-07-23T07:23:22;4.18;;;2.97;;
60344;SDS011;46188;52.324;8.032;2022-07-23T07:25:48;5.15;;;2.97;;
60344;SDS011;46188;52.324;8.032;2022-07-23T07:28:14;3.92;;;2.72;;
60344;SDS011;46188;52.324;8.032;2022-07-23T07:30:39;3.45;;;2.60;;
60344;SDS011;46188;52.324;8.032;2022-07-23T07:33:05;3.33;;;2.90;;
60344;SDS011;46188;52.324;8.032;2022-07-23T07:35:30;4.10;;;3.20;;
60344;SDS011;46188;52.324;8.032;2022-07-23T07:37:57;4.68;;;3.42;;
60344;SDS011;46188;52.324;8.032;2022-07-23T07:40:23;3.33;;;2.90;;
60344;SDS011;46188;52.324;8.032;2022-07-23T07:42:52;4.15;;;3.35;;
60344;SDS011;46188;52.324;8.032;2022-07-23T07:45:21;5.80;;;3.25;;
60344;SDS011;46188;52.324;8.032;2022-07-23T07:47:48;3.53;;;3.05;;
60344;SDS011;46188;52.324;8.032;2022-07-23T07:50:14;3.25;;;2.58;;
60344;SDS011;46188;52.324;8.032;2022-07-23T07:52:40;2.85;;;2.55;;
60344;SDS011;46188;52.324;8.032;2022-07-23T07:55:07;3.38;;;2.50;;
60344;SDS011;46188;52.324;8.032;2022-07-23T07:57:34;5.07;;;3.25;;
60344;SDS011;46188;52.324;8.032;2022-07-23T08:00:00;3.28;;;2.60;;
60344;SDS011;46188;52.324;8.032;2022-07-23T08:02:26;4.80;;;2.33;;
60344;SDS011;46188;52.324;8.032;2022-07-23T08:04:51;5.63;;;2.50;;
60344;SDS011;46188;52.324;8.032;2022-07-23T08:07:17;3.42;;;2.42;;
60344;SDS011;46188;52.324;8.032;2022-07-23T08:09:43;3.00;;;2.70;;
60344;SDS011;46188;52.324;8.032;2022-07-23T08:12:09;3.50;;;2.20;;
60344;SDS011;46188;52.324;8.032;2022-07-23T08:14:34;3.72;;;2.53;;
60344;SDS011;46188;52.324;8.032;2022-07-23T08:17:00;3.70;;;2.20;;
60344;SDS011;46188;52.324;8.032;2022-07-23T08:19:25;2.67;;;1.83;;
60344;SDS011;46188;52.324;8.032;2022-07-23T08:21:50;5.00;;;2.50;;
60344;SDS011;46188;52.324;8.032;2022-07-23T08:24:16;3.50;;;2.00;;
60344;SDS011;46188;52.324;8.032;2022-07-23T08:26:41;3.88;;;2.25;;
60344;SDS011;46188;52.324;8.032;2022-07-23T08:29:07;2.65;;;1.88;;
60344;SDS011;46188;52.324;8.032;2022-07-23T08:31:32;2.25;;;1.55;;
60344;SDS011;46188;52.324;8.032;2022-07-23T08:33:59;2.92;;;1.85;;
60344;SDS011;46188;52.324;8.032;2022-07-23T08:36:24;2.60;;;1.80;;
60344;SDS011;46188;52.324;8.032;2022-07-23T08:38:52;2.72;;;1.80;;
60344;SDS011;46188;52.324;8.032;2022-07-23T08:41:19;2.08;;;1.80;;
60344;SDS011;46188;52.324;8.032;2022-07-23T08:43:44;3.42;;;1.90;;
60344;SDS011;46188;52.324;8.032;2022-07-23T08:46:10;2.08;;;1.73;;
60344;SDS011;46188;52.324;8.032;2022-07-23T08:48:38;2.20;;;1.60;;
60344;SDS011;46188;52.324;8.032;2022-07-23T08:51:04;2.72;;;1.70;;
60344;SDS011;46188;52.324;8.032;2022-07-23T08:53:30;2.17;;;1.85;;
60344;SDS011;46188;52.324;8.032;2022-07-23T08:55:58;2.83;;;1.70;;
60344;SDS011;46188;52.324;8.032;2022-07-23T08:58:26;2.35;;;1.50;;
60344;SDS011;46188;52.324;8.032;2022-07-23T09:00:52;3.22;;;1.88;;
60344;SDS011;46188;52.324;8.032;2022-07-23T09:06:04;2.33;;;1.90;;
60344;SDS011;46188;52.324;8.032;2022-07-23T09:10:59;2.03;;;1.83;;
60344;SDS011;46188;52.324;8.032;2022-07-23T09:15:54;3.40;;;2.05;;
60344;SDS011;46188;52.324;8.032;2022-07-23T09:18:27;2.22;;;2.03;;
60344;SDS011;46188;52.324;8.032;2022-07-23T09:21:16;2.40;;;1.75;;
60344;SDS011;46188;52.324;8.032;2022-07-23T09:23:49;2.38;;;1.80;;
60344;SDS011;46188;52.324;8.032;2022-07-23T09:26:30;2.13;;;1.75;;
60344;SDS011;46188;52.324;8.032;2022-07-23T09:29:03;3.53;;;1.70;;
60344;SDS011;46188;52.324;8.032;2022-07-23T09:32:13;2.05;;;1.50;;
60344;SDS011;46188;52.324;8.032;2022-07-23T09:34:27;5.75;;;1.60;;
60344;SDS011;46188;52.324;8.032;2022-07-23T09:37:09;1.83;;;1.33;;
60344;SDS011;46188;52.324;8.032;2022-07-23T09:39:43;1.73;;;1.27;;
60344;SDS011;46188;52.324;8.032;2022-07-23T09:44:48;1.67;;;1.40;;
60344;SDS011;46188;52.324;8.032;2022-07-23T09:47:16;1.60;;;1.27;;
60344;SDS011;46188;52.324;8.032;2022-07-23T09:50:04;1.40;;;1.20;;
60344;SDS011;46188;52.324;8.032;2022-07-23T09:52:34;2.47;;;1.33;;
60344;SDS011;46188;52.324;8.032;2022-07-23T09:55:07;1.70;;;1.33;;
60344;SDS011;46188;52.324;8.032;2022-07-23T09:57:33;1.75;;;1.25;;
60344;SDS011;46188;52.324;8.032;2022-07-23T10:00:04;2.58;;;1.67;;
60344;SDS011;46188;52.324;8.032;2022-07-23T10:02:31;1.88;;;1.33;;
60344;SDS011;46188;52.324;8.032;2022-07-23T10:04:58;3.13;;;1.40;;
60344;SDS011;46188;52.324;8.032;2022-07-23T10:07:26;1.90;;;1.38;;
60344;SDS011;46188;52.324;8.032;2022-07-23T10:09:55;2.55;;;1.25;;
60344;SDS011;46188;52.324;8.032;2022-07-23T10:12:20;2.38;;;1.23;;
60344;SDS011;46188;52.324;8.032;2022-07-23T10:14:57;2.60;;;1.35;;
60344;SDS011;46188;52.324;8.032;2022-07-23T10:17:23;1.80;;;1.20;;
60344;SDS011;46188;52.324;8.032;2022-07-23T10:19:48;2.05;;;1.30;;
60344;SDS011;46188;52.324;8.032;2022-07-23T10:22:17;1.60;;;1.10;;
60344;SDS011;46188;52.324;8.032;2022-07-23T10:28:06;1.80;;;1.30;;
60344;SDS011;46188;52.324;8.032;2022-07-23T10:31:06;1.63;;;1.08;;
60344;SDS011;46188;52.324;8.032;2022-07-23T10:41:49;2.08;;;1.20;;
60344;SDS011;46188;52.324;8.032;2022-07-23T10:44:17;1.52;;;1.30;;
60344;SDS011;46188;52.324;8.032;2022-07-23T10:47:03;2.38;;;1.13;;
60344;SDS011;46188;52.324;8.032;2022-07-23T10:49:47;2.53;;;1.23;;
60344;SDS011;46188;52.324;8.032;2022-07-23T10:54:42;2.85;;;1.13;;
60344;SDS011;46188;52.324;8.032;2022-07-23T10:57:12;1.60;;;1.33;;
60344;SDS011;46188;52.324;8.032;2022-07-23T11:02:32;1.88;;;1.20;;
60344;SDS011;46188;52.324;8.032;2022-07-23T11:04:59;3.08;;;1.60;;
60344;SDS011;46188;52.324;8.032;2022-07-23T11:07:28;2.65;;;1.35;;
60344;SDS011;46188;52.324;8.032;2022-07-23T11:09:54;1.40;;;1.00;;
60344;SDS011;46188;52.324;8.032;2022-07-23T11:15:06;1.58;;;1.20;;
60344;SDS011;46188;52.324;8.032;2022-07-23T11:17:37;1.73;;;1.10;;
60344;SDS011;46188;52.324;8.032;2022-07-23T11:22:37;2.33;;;1.30;;
60344;SDS011;46188;52.324;8.032;2022-07-23T11:25:04;1.55;;;0.95;;
60344;SDS011;46188;52.324;8.032;2022-07-23T11:27:37;1.20;;;0.90;;
60344;SDS011;46188;52.324;8.032;2022-07-23T11:30:10;1.50;;;1.00;;
60344;SDS011;46188;52.324;8.032;2022-07-23T11:35:34;1.30;;;1.00;;
60344;SDS011;46188;52.324;8.032;2022-07-23T11:38:04;1.70;;;1.10;;
60344;SDS011;46188;52.324;8.032;2022-07-23T11:40:31;1.90;;;1.13;;
60344;SDS011;46188;52.324;8.032;2022-07-23T11:42:58;1.60;;;1.00;;
60344;SDS011;46188;52.324;8.032;2022-07-23T11:45:33;1.88;;;1.15;;
60344;SDS011;46188;52.324;8.032;2022-07-23T11:48:00;2.50;;;0.98;;
60344;SDS011;46188;52.324;8.032;2022-07-23T11:50:26;2.20;;;1.10;;
60344;SDS011;46188;52.324;8.032;2022-07-23T11:52:53;1.70;;;1.20;;
60344;SDS011;46188;52.324;8.032;2022-07-23T11:55:19;1.90;;;1.42;;
60344;SDS011;46188;52.324;8.032;2022-07-23T11:57:45;2.08;;;1.30;;
60344;SDS011;46188;52.324;8.032;2022-07-23T12:02:45;2.05;;;1.05;;
60344;SDS011;46188;52.324;8.032;2022-07-23T12:05:45;1.90;;;0.95;;
60344;SDS011;46188;52.324;8.032;2022-07-23T12:08:05;1.75;;;1.10;;
60344;SDS011;46188;52.324;8.032;2022-07-23T12:13:05;1.85;;;1.00;;
60344;SDS011;46188;52.324;8.032;2022-07-23T12:15:39;1.90;;;1.20;;
60344;SDS011;46188;52.324;8.032;2022-07-23T12:18:08;1.90;;;1.20;;
60344;SDS011;46188;52.324;8.032;2022-07-23T12:20:39;1.30;;;1.00;;
60344;SDS011;46188;52.324;8.032;2022-07-23T12:23:07;2.00;;;1.05;;
60344;SDS011;46188;52.324;8.032;2022-07-23T12:25:35;1.75;;;1.10;;
60344;SDS011;46188;52.324;8.032;2022-07-23T12:28:06;3.20;;;1.08;;
60344;SDS011;46188;52.324;8.032;2022-07-23T12:30:38;2.05;;;0.93;;
60344;SDS011;46188;52.324;8.032;2022-07-23T12:33:08;2.30;;;1.00;;
60344;SDS011;46188;52.324;8.032;2022-07-23T12:35:41;1.17;;;0.95;;
60344;SDS011;46188;52.324;8.032;2022-07-23T12:38:10;1.63;;;1.00;;
60344;SDS011;46188;52.324;8.032;2022-07-23T12:45:52;1.58;;;1.00;;
60344;SDS011;46188;52.324;8.032;2022-07-23T12:48:26;2.80;;;1.00;;
60344;SDS011;46188;52.324;8.032;2022-07-23T12:50:54;1.63;;;1.05;;
60344;SDS011;46188;52.324;8.032;2022-07-23T12:53:23;1.90;;;1.17;;
60344;SDS011;46188;52.324;8.032;2022-07-23T12:55:56;2.03;;;1.20;;
60344;SDS011;46188;52.324;8.032;2022-07-23T13:01:00;1.30;;;1.00;;
60344;SDS011;46188;52.324;8.032;2022-07-23T13:05:54;1.40;;;0.90;;
60344;SDS011;46188;52.324;8.032;2022-07-23T13:08:20;1.33;;;1.00;;
60344;SDS011;46188;52.324;8.032;2022-07-23T13:10:46;2.50;;;0.93;;
60344;SDS011;46188;52.324;8.032;2022-07-23T13:13:13;1.85;;;1.10;;
60344;SDS011;46188;52.324;8.032;2022-07-23T13:15:46;1.33;;;0.90;;
60344;SDS011;46188;52.324;8.032;2022-07-23T13:18:12;2.03;;;1.08;;
60344;SDS011;46188;52.324;8.032;2022-07-23T13:20:37;1.58;;;0.98;;
60344;SDS011;46188;52.324;8.032;2022-07-23T13:23:04;1.58;;;1.00;;
60344;SDS011;46188;52.324;8.032;2022-07-23T13:25:32;1.30;;;1.00;;
60344;SDS011;46188;52.324;8.032;2022-07-23T13:27:57;1.77;;;1.00;;
60344;SDS011;46188;52.324;8.032;2022-07-23T13:30:23;2.10;;;1.30;;
60344;SDS011;46188;52.324;8.032;2022-07-23T13:32:48;2.05;;;1.08;;
60344;SDS011;46188;52.324;8.032;2022-07-23T13:35:14;1.35;;;1.02;;
60344;SDS011;46188;52.324;8.032;2022-07-23T13:37:39;2.10;;;1.13;;
60344;SDS011;46188;52.324;8.032;2022-07-23T13:40:05;1.98;;;1.10;;
60344;SDS011;46188;52.324;8.032;2022-07-23T13:42:31;1.80;;;1.20;;
60344;SDS011;46188;52.324;8.032;2022-07-23T13:44:57;1.42;;;1.13;;
60344;SDS011;46188;52.324;8.032;2022-07-23T13:47:22;3.08;;;1.10;;
60344;SDS011;46188;52.324;8.032;2022-07-23T13:49:48;1.67;;;1.20;;
60344;SDS011;46188;52.324;8.032;2022-07-23T13:52:13;2.50;;;1.42;;
60344;SDS011;46188;52.324;8.032;2022-07-23T13:54:39;2.17;;;1.10;;
60344;SDS011;46188;52.324;8.032;2022-07-23T13:57:05;1.63;;;1.20;;
60344;SDS011;46188;52.324;8.032;2022-07-23T13:59:30;1.80;;;1.10;;
60344;SDS011;46188;52.324;8.032;2022-07-23T14:01:56;1.83;;;1.10;;
60344;SDS011;46188;52.324;8.032;2022-07-23T14:04:21;1.40;;;1.00;;
60344;SDS011;46188;52.324;8.032;2022-07-23T14:06:47;1.20;;;0.95;;
60344;SDS011;46188;52.324;8.032;2022-07-23T14:09:13;1.45;;;1.00;;
60344;SDS011;46188;52.324;8.032;2022-07-23T14:11:38;3.88;;;1.30;;
60344;SDS011;46188;52.324;8.032;2022-07-23T14:14:04;1.52;;;1.15;;
60344;SDS011;46188;52.324;8.032;2022-07-23T14:16:30;1.30;;;1.15;;
60344;SDS011;46188;52.324;8.032;2022-07-23T14:18:56;1.75;;;1.08;;
60344;SDS011;46188;52.324;8.032;2022-07-23T14:21:21;1.50;;;1.20;;
60344;SDS011;46188;52.324;8.032;2022-07-23T14:23:47;2.40;;;1.20;;
60344;SDS011;46188;52.324;8.032;2022-07-23T14:26:12;1.75;;;1.27;;
60344;SDS011;46188;52.324;8.032;2022-07-23T14:28:38;1.63;;;1.20;;
60344;SDS011;46188;52.324;8.032;2022-07-23T14:31:03;2.00;;;1.45;;
60344;SDS011;46188;52.324;8.032;2022-07-23T14:33:29;1.85;;;1.30;;
60344;SDS011;46188;52.324;8.032;2022-07-23T14:35:54;1.60;;;1.10;;
60344;SDS011;46188;52.324;8.032;2022-07-23T14:38:20;1.75;;;1.35;;
60344;SDS011;46188;52.324;8.032;2022-07-23T14:40:45;1.60;;;1.13;;
60344;SDS011;46188;52.324;8.032;2022-07-23T14:43:11;1.95;;;1.05;;
60344;SDS011;46188;52.324;8.032;2022-07-23T14:45:36;1.40;;;1.17;;
60344;SDS011;46188;52.324;8.032;2022-07-23T14:48:02;2.50;;;1.20;;
60344;SDS011;46188;52.324;8.032;2022-07-23T14:50:28;2.13;;;1.10;;
60344;SDS011;46188;52.324;8.032;2022-07-23T14:52:53;1.88;;;1.23;;
60344;SDS011;46188;52.324;8.032;2022-07-23T14:55:19;1.85;;;1.23;;
60344;SDS011;46188;52.324;8.032;2022-07-23T14:57:45;2.35;;;1.42;;
60344;SDS011;46188;52.324;8.032;2022-07-23T15:00:11;1.90;;;1.20;;
60344;SDS011;46188;52.324;8.032;2022-07-23T15:02:37;2.00;;;1.30;;
60344;SDS011;46188;52.324;8.032;2022-07-23T15:05:03;1.60;;;1.30;;
60344;SDS011;46188;52.324;8.032;2022-07-23T15:07:29;1.60;;;1.25;;
60344;SDS011;46188;52.324;8.032;2022-07-23T15:09:55;2.05;;;1.40;;
60344;SDS011;46188;52.324;8.032;2022-07-23T15:12:21;1.80;;;1.10;;
60344;SDS011;46188;52.324;8.032;2022-07-23T15:14:47;1.73;;;1.23;;
60344;SDS011;46188;52.324;8.032;2022-07-23T15:17:12;1.80;;;1.27;;
60344;SDS011;46188;52.324;8.032;2022-07-23T15:19:38;2.13;;;1.30;;
60344;SDS011;46188;52.324;8.032;2022-07-23T15:22:03;1.70;;;1.30;;
60344;SDS011;46188;52.324;8.032;2022-07-23T15:24:29;1.52;;;1.25;;
60344;SDS011;46188;52.324;8.032;2022-07-23T15:26:56;3.90;;;1.60;;
60344;SDS011;46188;52.324;8.032;2022-07-23T15:29:22;1.50;;;1.25;;
60344;SDS011;46188;52.324;8.032;2022-07-23T15:31:48;1.42;;;1.00;;
60344;SDS011;46188;52.324;8.032;2022-07-23T15:34:13;1.40;;;1.00;;
60344;SDS011;46188;52.324;8.032;2022-07-23T15:36:39;1.42;;;1.08;;